sensor_id;sensor_type;location;lat;lon;timestamp;P1;durP1;ratioP1;P2;durP2;ratioP2
22240;SDS011;11289;52.524;13.694;2024-02-16T00:01:00;15.82;;;10.48;;
22240;SDS011;11289;52.524;13.694;2024-02-16T00:03:27;13.60;;;10.38;;
22240;SDS011;11289;52.524;13.694;2024-02-16T00:05:53;14.10;;;10.25;;
22240;SDS011;11289;52.524;13.694;2024-02-16T00:08:20;14.15;;;10.80;;
22240;SDS011;11289;52.524;13.694;2024-02-16T00:10:46;17.33;;;11.65;;
22240;SDS011;11289;52.524;13.694;2024-02-16T00:13:12;15.10;;;10.75;;
22240;SDS011;11289;52.524;13.694;2024-02-16T00:15:39;16.27;;;12.50;;
22240;SDS011;11289;52.524;13.694;2024-02-16T00:18:05;17.70;;;12.18;;
22240;SDS011;11289;52.524;13.694;2024-02-16T00:20:32;15.68;;;11.40;;
22240;SDS011;11289;52.524;13.694;2024-02-16T00:22:58;17.00;;;12.18;;
22240;SDS011;11289;52.524;13.694;2024-02-16T00:25:25;18.58;;;13.25;;
22240;SDS011;11289;52.524;13.694;2024-02-16T00:27:52;18.13;;;12.85;;
22240;SDS011;11289;52.524;13.694;2024-02-16T00:30:19;18.38;;;12.57;;
22240;SDS011;11289;52.524;13.694;2024-02-16T00:32:45;16.42;;;12.77;;
22240;SDS011;11289;52.524;13.694;2024-02-16T00:35:11;17.15;;;12.55;;
22240;SDS011;11289;52.524;13.694;2024-02-16T00:37:37;19.63;;;13.25;;
22240;SDS011;11289;52.524;13.694;2024-02-16T00:40:03;16.88;;;11.95;;
22240;SDS011;11289;52.524;13.694;2024-02-16T00:42:32;17.58;;;13.00;;
22240;SDS011;11289;52.524;13.694;2024-02-16T00:44:57;17.55;;;12.80;;
22240;SDS011;11289;52.524;13.694;2024-02-16T00:47:26;16.48;;;13.65;;
22240;SDS011;11289;52.524;13.694;2024-02-16T00:49:55;19.92;;;13.85;;
22240;SDS011;11289;52.524;13.694;2024-02-16T00:52:22;18.00;;;12.77;;
22240;SDS011;11289;52.524;13.694;2024-02-16T00:54:48;16.48;;;12.98;;
22240;SDS011;11289;52.524;13.694;2024-02-16T00:57:14;17.63;;;12.43;;
22240;SDS011;11289;52.524;13.694;2024-02-16T00:59:41;17.77;;;12.80;;
22240;SDS011;11289;52.524;13.694;2024-02-16T01:02:06;15.05;;;12.20;;
22240;SDS011;11289;52.524;13.694;2024-02-16T01:04:33;18.58;;;13.70;;
22240;SDS011;11289;52.524;13.694;2024-02-16T01:06:59;17.60;;;12.77;;
22240;SDS011;11289;52.524;13.694;2024-02-16T01:09:25;18.63;;;13.30;;
22240;SDS011;11289;52.524;13.694;2024-02-16T01:11:52;17.13;;;13.07;;
22240;SDS011;11289;52.524;13.694;2024-02-16T01:14:18;15.30;;;12.70;;
22240;SDS011;11289;52.524;13.694;2024-02-16T01:16:45;17.73;;;12.57;;
22240;SDS011;11289;52.524;13.694;2024-02-16T01:19:11;16.45;;;13.13;;
22240;SDS011;11289;52.524;13.694;2024-02-16T01:21:38;17.70;;;13.45;;
22240;SDS011;11289;52.524;13.694;2024-02-16T01:24:05;17.10;;;12.75;;
22240;SDS011;11289;52.524;13.694;2024-02-16T01:26:31;17.38;;;13.70;;
22240;SDS011;11289;52.524;13.694;2024-02-16T01:28:58;15.63;;;12.20;;
22240;SDS011;11289;52.524;13.694;2024-02-16T01:31:24;15.48;;;12.98;;
22240;SDS011;11289;52.524;13.694;2024-02-16T01:33:51;19.85;;;13.00;;
22240;SDS011;11289;52.524;13.694;2024-02-16T01:36:18;18.30;;;13.35;;
22240;SDS011;11289;52.524;13.694;2024-02-16T01:38:44;17.23;;;13.80;;
22240;SDS011;11289;52.524;13.694;2024-02-16T01:41:10;17.55;;;13.10;;
22240;SDS011;11289;52.524;13.694;2024-02-16T01:43:36;17.92;;;13.02;;
22240;SDS011;11289;52.524;13.694;2024-02-16T01:46:02;14.98;;;11.73;;
22240;SDS011;11289;52.524;13.694;2024-02-16T01:48:28;16.65;;;13.07;;
22240;SDS011;11289;52.524;13.694;2024-02-16T01:50:55;19.27;;;14.20;;
22240;SDS011;11289;52.524;13.694;2024-02-16T01:53:21;15.70;;;13.35;;
22240;SDS011;11289;52.524;13.694;2024-02-16T01:55:48;20.38;;;13.98;;
22240;SDS011;11289;52.524;13.694;2024-02-16T01:58:14;17.48;;;13.13;;
22240;SDS011;11289;52.524;13.694;2024-02-16T02:00:40;19.30;;;13.70;;
22240;SDS011;11289;52.524;13.694;2024-02-16T02:03:09;22.65;;;14.48;;
22240;SDS011;11289;52.524;13.694;2024-02-16T02:05:43;19.15;;;14.25;;
22240;SDS011;11289;52.524;13.694;2024-02-16T02:08:11;21.58;;;14.98;;
22240;SDS011;11289;52.524;13.694;2024-02-16T02:10:38;20.75;;;14.63;;
22240;SDS011;11289;52.524;13.694;2024-02-16T02:13:04;18.50;;;14.95;;
22240;SDS011;11289;52.524;13.694;2024-02-16T02:15:29;18.50;;;14.63;;
22240;SDS011;11289;52.524;13.694;2024-02-16T02:17:55;18.90;;;14.70;;
22240;SDS011;11289;52.524;13.694;2024-02-16T02:20:23;20.02;;;14.75;;
22240;SDS011;11289;52.524;13.694;2024-02-16T02:22:49;19.08;;;15.10;;
22240;SDS011;11289;52.524;13.694;2024-02-16T02:25:15;21.05;;;15.00;;
22240;SDS011;11289;52.524;13.694;2024-02-16T02:27:41;21.38;;;15.50;;
22240;SDS011;11289;52.524;13.694;2024-02-16T02:30:08;20.80;;;16.00;;
22240;SDS011;11289;52.524;13.694;2024-02-16T02:32:34;22.00;;;16.67;;
22240;SDS011;11289;52.524;13.694;2024-02-16T02:35:05;21.88;;;15.23;;
22240;SDS011;11289;52.524;13.694;2024-02-16T02:37:31;21.52;;;15.00;;
22240;SDS011;11289;52.524;13.694;2024-02-16T02:39:57;22.65;;;16.58;;
22240;SDS011;11289;52.524;13.694;2024-02-16T02:42:23;22.80;;;17.75;;
22240;SDS011;11289;52.524;13.694;2024-02-16T02:44:49;23.30;;;17.33;;
22240;SDS011;11289;52.524;13.694;2024-02-16T02:47:16;24.23;;;16.70;;
22240;SDS011;11289;52.524;13.694;2024-02-16T02:49:43;21.40;;;16.73;;
22240;SDS011;11289;52.524;13.694;2024-02-16T02:52:09;20.98;;;16.02;;
22240;SDS011;11289;52.524;13.694;2024-02-16T02:54:35;22.88;;;16.55;;
22240;SDS011;11289;52.524;13.694;2024-02-16T02:57:04;22.85;;;16.20;;
22240;SDS011;11289;52.524;13.694;2024-02-16T02:59:30;22.15;;;17.77;;
22240;SDS011;11289;52.524;13.694;2024-02-16T03:01:56;23.02;;;17.38;;
22240;SDS011;11289;52.524;13.694;2024-02-16T03:04:22;26.08;;;17.15;;
22240;SDS011;11289;52.524;13.694;2024-02-16T03:06:48;25.65;;;17.83;;
22240;SDS011;11289;52.524;13.694;2024-02-16T03:09:16;24.60;;;17.75;;
22240;SDS011;11289;52.524;13.694;2024-02-16T03:11:42;21.02;;;16.63;;
22240;SDS011;11289;52.524;13.694;2024-02-16T03:14:08;24.95;;;17.85;;
22240;SDS011;11289;52.524;13.694;2024-02-16T03:16:34;21.90;;;16.92;;
22240;SDS011;11289;52.524;13.694;2024-02-16T03:19:00;24.08;;;18.50;;
22240;SDS011;11289;52.524;13.694;2024-02-16T03:21:26;26.48;;;17.73;;
22240;SDS011;11289;52.524;13.694;2024-02-16T03:23:52;26.38;;;18.55;;
22240;SDS011;11289;52.524;13.694;2024-02-16T03:26:19;22.65;;;16.30;;
22240;SDS011;11289;52.524;13.694;2024-02-16T03:28:46;25.15;;;18.13;;
22240;SDS011;11289;52.524;13.694;2024-02-16T03:31:19;23.38;;;16.77;;
22240;SDS011;11289;52.524;13.694;2024-02-16T03:33:46;24.88;;;17.42;;
22240;SDS011;11289;52.524;13.694;2024-02-16T03:36:13;23.42;;;16.45;;
22240;SDS011;11289;52.524;13.694;2024-02-16T03:38:43;25.65;;;17.38;;
22240;SDS011;11289;52.524;13.694;2024-02-16T03:41:13;20.23;;;16.38;;
22240;SDS011;11289;52.524;13.694;2024-02-16T03:43:40;26.42;;;17.85;;
22240;SDS011;11289;52.524;13.694;2024-02-16T03:46:06;24.85;;;17.00;;
22240;SDS011;11289;52.524;13.694;2024-02-16T03:48:32;21.10;;;16.08;;
22240;SDS011;11289;52.524;13.694;2024-02-16T03:50:58;27.42;;;17.13;;
22240;SDS011;11289;52.524;13.694;2024-02-16T03:53:24;22.13;;;16.67;;
22240;SDS011;11289;52.524;13.694;2024-02-16T03:55:50;22.98;;;16.23;;
22240;SDS011;11289;52.524;13.694;2024-02-16T03:58:16;26.27;;;16.67;;
22240;SDS011;11289;52.524;13.694;2024-02-16T04:00:42;28.15;;;17.30;;
22240;SDS011;11289;52.524;13.694;2024-02-16T04:03:08;22.85;;;16.17;;
22240;SDS011;11289;52.524;13.694;2024-02-16T04:05:40;25.05;;;16.02;;
22240;SDS011;11289;52.524;13.694;2024-02-16T04:08:06;21.65;;;15.30;;
22240;SDS011;11289;52.524;13.694;2024-02-16T04:10:33;23.83;;;16.45;;
22240;SDS011;11289;52.524;13.694;2024-02-16T04:12:59;22.63;;;16.00;;
22240;SDS011;11289;52.524;13.694;2024-02-16T04:15:26;23.83;;;16.58;;
22240;SDS011;11289;52.524;13.694;2024-02-16T04:17:52;21.73;;;14.63;;
22240;SDS011;11289;52.524;13.694;2024-02-16T04:20:18;23.02;;;15.80;;
22240;SDS011;11289;52.524;13.694;2024-02-16T04:22:45;25.33;;;15.70;;
22240;SDS011;11289;52.524;13.694;2024-02-16T04:25:13;23.00;;;15.60;;
22240;SDS011;11289;52.524;13.694;2024-02-16T04:27:39;24.23;;;15.20;;
22240;SDS011;11289;52.524;13.694;2024-02-16T04:30:05;21.88;;;15.07;;
22240;SDS011;11289;52.524;13.694;2024-02-16T04:32:32;23.08;;;15.02;;
22240;SDS011;11289;52.524;13.694;2024-02-16T04:34:58;22.85;;;14.55;;
22240;SDS011;11289;52.524;13.694;2024-02-16T04:37:25;23.90;;;14.60;;
22240;SDS011;11289;52.524;13.694;2024-02-16T04:39:51;24.15;;;16.30;;
22240;SDS011;11289;52.524;13.694;2024-02-16T04:42:17;23.63;;;15.73;;
22240;SDS011;11289;52.524;13.694;2024-02-16T04:44:43;22.40;;;16.77;;
22240;SDS011;11289;52.524;13.694;2024-02-16T04:47:10;23.73;;;16.70;;
22240;SDS011;11289;52.524;13.694;2024-02-16T04:49:36;27.70;;;16.55;;
22240;SDS011;11289;52.524;13.694;2024-02-16T04:52:02;25.48;;;16.05;;
22240;SDS011;11289;52.524;13.694;2024-02-16T04:54:28;23.38;;;16.27;;
22240;SDS011;11289;52.524;13.694;2024-02-16T04:56:55;20.13;;;15.25;;
22240;SDS011;11289;52.524;13.694;2024-02-16T04:59:21;23.20;;;15.48;;
22240;SDS011;11289;52.524;13.694;2024-02-16T05:01:47;23.67;;;16.30;;
22240;SDS011;11289;52.524;13.694;2024-02-16T05:04:13;21.30;;;15.68;;
22240;SDS011;11289;52.524;13.694;2024-02-16T05:06:42;24.00;;;15.68;;
22240;SDS011;11289;52.524;13.694;2024-02-16T05:09:11;23.60;;;16.55;;
22240;SDS011;11289;52.524;13.694;2024-02-16T05:11:37;21.17;;;15.15;;
22240;SDS011;11289;52.524;13.694;2024-02-16T05:14:03;23.52;;;16.35;;
22240;SDS011;11289;52.524;13.694;2024-02-16T05:16:29;22.40;;;15.38;;
22240;SDS011;11289;52.524;13.694;2024-02-16T05:18:55;21.17;;;15.52;;
22240;SDS011;11289;52.524;13.694;2024-02-16T05:21:22;22.10;;;16.15;;
22240;SDS011;11289;52.524;13.694;2024-02-16T05:23:48;23.80;;;16.13;;
22240;SDS011;11289;52.524;13.694;2024-02-16T05:26:14;20.88;;;15.05;;
22240;SDS011;11289;52.524;13.694;2024-02-16T05:28:40;23.92;;;15.32;;
22240;SDS011;11289;52.524;13.694;2024-02-16T05:31:13;21.95;;;14.90;;
22240;SDS011;11289;52.524;13.694;2024-02-16T05:33:41;24.30;;;15.65;;
22240;SDS011;11289;52.524;13.694;2024-02-16T05:36:08;20.95;;;14.52;;
22240;SDS011;11289;52.524;13.694;2024-02-16T05:38:34;23.90;;;15.07;;
22240;SDS011;11289;52.524;13.694;2024-02-16T05:41:00;23.42;;;15.05;;
22240;SDS011;11289;52.524;13.694;2024-02-16T05:43:26;21.10;;;14.55;;
22240;SDS011;11289;52.524;13.694;2024-02-16T05:45:52;24.33;;;15.02;;
22240;SDS011;11289;52.524;13.694;2024-02-16T05:48:18;21.88;;;15.07;;
22240;SDS011;11289;52.524;13.694;2024-02-16T05:50:45;21.73;;;14.10;;
22240;SDS011;11289;52.524;13.694;2024-02-16T05:53:11;20.45;;;14.13;;
22240;SDS011;11289;52.524;13.694;2024-02-16T05:55:37;23.13;;;14.70;;
22240;SDS011;11289;52.524;13.694;2024-02-16T05:58:03;21.60;;;15.65;;
22240;SDS011;11289;52.524;13.694;2024-02-16T06:00:31;20.65;;;13.35;;
22240;SDS011;11289;52.524;13.694;2024-02-16T06:02:59;21.25;;;14.73;;
22240;SDS011;11289;52.524;13.694;2024-02-16T06:05:25;22.17;;;14.77;;
22240;SDS011;11289;52.524;13.694;2024-02-16T06:07:50;21.65;;;15.63;;
22240;SDS011;11289;52.524;13.694;2024-02-16T06:10:16;22.90;;;15.18;;
22240;SDS011;11289;52.524;13.694;2024-02-16T06:12:43;22.27;;;14.77;;
22240;SDS011;11289;52.524;13.694;2024-02-16T06:15:09;20.67;;;14.20;;
22240;SDS011;11289;52.524;13.694;2024-02-16T06:17:35;22.38;;;14.43;;
22240;SDS011;11289;52.524;13.694;2024-02-16T06:20:02;22.17;;;15.05;;
22240;SDS011;11289;52.524;13.694;2024-02-16T06:22:29;21.60;;;15.30;;
22240;SDS011;11289;52.524;13.694;2024-02-16T06:24:57;24.25;;;14.82;;
22240;SDS011;11289;52.524;13.694;2024-02-16T06:27:23;20.70;;;14.23;;
22240;SDS011;11289;52.524;13.694;2024-02-16T06:29:49;21.45;;;14.07;;
22240;SDS011;11289;52.524;13.694;2024-02-16T06:32:15;20.35;;;14.25;;
22240;SDS011;11289;52.524;13.694;2024-02-16T06:34:42;21.00;;;13.88;;
22240;SDS011;11289;52.524;13.694;2024-02-16T06:37:11;22.40;;;15.30;;
22240;SDS011;11289;52.524;13.694;2024-02-16T06:39:37;19.13;;;13.57;;
22240;SDS011;11289;52.524;13.694;2024-02-16T06:42:03;20.45;;;14.07;;
22240;SDS011;11289;52.524;13.694;2024-02-16T06:44:29;21.85;;;14.73;;
22240;SDS011;11289;52.524;13.694;2024-02-16T06:46:55;24.40;;;16.58;;
22240;SDS011;11289;52.524;13.694;2024-02-16T06:49:21;22.20;;;15.05;;
22240;SDS011;11289;52.524;13.694;2024-02-16T06:51:47;22.35;;;14.73;;
22240;SDS011;11289;52.524;13.694;2024-02-16T06:54:13;23.45;;;15.02;;
22240;SDS011;11289;52.524;13.694;2024-02-16T06:56:40;20.95;;;14.27;;
22240;SDS011;11289;52.524;13.694;2024-02-16T06:59:06;23.63;;;15.38;;
22240;SDS011;11289;52.524;13.694;2024-02-16T07:01:32;20.67;;;15.60;;
22240;SDS011;11289;52.524;13.694;2024-02-16T07:03:58;23.73;;;14.30;;
22240;SDS011;11289;52.524;13.694;2024-02-16T07:06:23;21.85;;;14.73;;
22240;SDS011;11289;52.524;13.694;2024-02-16T07:08:49;24.23;;;15.05;;
22240;SDS011;11289;52.524;13.694;2024-02-16T07:11:16;23.33;;;15.25;;
22240;SDS011;11289;52.524;13.694;2024-02-16T07:13:42;24.23;;;14.35;;
22240;SDS011;11289;52.524;13.694;2024-02-16T07:16:08;25.65;;;14.40;;
22240;SDS011;11289;52.524;13.694;2024-02-16T07:18:34;24.40;;;14.88;;
22240;SDS011;11289;52.524;13.694;2024-02-16T07:21:01;22.27;;;13.43;;
22240;SDS011;11289;52.524;13.694;2024-02-16T07:23:27;22.05;;;14.38;;
22240;SDS011;11289;52.524;13.694;2024-02-16T07:25:54;18.98;;;13.82;;
22240;SDS011;11289;52.524;13.694;2024-02-16T07:28:22;23.10;;;15.35;;
22240;SDS011;11289;52.524;13.694;2024-02-16T07:30:49;21.58;;;13.70;;
22240;SDS011;11289;52.524;13.694;2024-02-16T07:33:15;20.92;;;14.73;;
22240;SDS011;11289;52.524;13.694;2024-02-16T07:35:41;24.25;;;15.65;;
22240;SDS011;11289;52.524;13.694;2024-02-16T07:38:07;22.65;;;16.83;;
22240;SDS011;11289;52.524;13.694;2024-02-16T07:40:33;24.33;;;15.70;;
22240;SDS011;11289;52.524;13.694;2024-02-16T07:42:59;21.35;;;15.55;;
22240;SDS011;11289;52.524;13.694;2024-02-16T07:45:26;21.67;;;15.60;;
22240;SDS011;11289;52.524;13.694;2024-02-16T07:47:52;22.88;;;15.07;;
22240;SDS011;11289;52.524;13.694;2024-02-16T07:50:18;21.80;;;15.32;;
22240;SDS011;11289;52.524;13.694;2024-02-16T07:52:48;20.25;;;14.27;;
22240;SDS011;11289;52.524;13.694;2024-02-16T07:55:15;23.67;;;14.00;;
22240;SDS011;11289;52.524;13.694;2024-02-16T07:57:44;21.60;;;14.63;;
22240;SDS011;11289;52.524;13.694;2024-02-16T08:00:10;19.77;;;12.98;;
22240;SDS011;11289;52.524;13.694;2024-02-16T08:02:36;18.70;;;13.55;;
22240;SDS011;11289;52.524;13.694;2024-02-16T08:05:04;20.52;;;14.02;;
22240;SDS011;11289;52.524;13.694;2024-02-16T08:07:31;20.73;;;14.50;;
22240;SDS011;11289;52.524;13.694;2024-02-16T08:09:57;21.73;;;14.07;;
22240;SDS011;11289;52.524;13.694;2024-02-16T08:12:23;18.92;;;13.90;;
22240;SDS011;11289;52.524;13.694;2024-02-16T08:14:51;21.33;;;13.45;;
22240;SDS011;11289;52.524;13.694;2024-02-16T08:17:17;17.85;;;13.13;;
22240;SDS011;11289;52.524;13.694;2024-02-16T08:19:43;19.80;;;14.13;;
22240;SDS011;11289;52.524;13.694;2024-02-16T08:22:09;19.63;;;13.88;;
22240;SDS011;11289;52.524;13.694;2024-02-16T08:24:35;15.23;;;11.60;;
22240;SDS011;11289;52.524;13.694;2024-02-16T08:27:01;18.25;;;12.65;;
22240;SDS011;11289;52.524;13.694;2024-02-16T08:29:29;15.50;;;11.57;;
22240;SDS011;11289;52.524;13.694;2024-02-16T08:31:56;16.90;;;11.88;;
22240;SDS011;11289;52.524;13.694;2024-02-16T08:34:22;17.65;;;11.95;;
22240;SDS011;11289;52.524;13.694;2024-02-16T08:36:48;16.88;;;11.77;;
22240;SDS011;11289;52.524;13.694;2024-02-16T08:39:15;17.20;;;11.77;;
22240;SDS011;11289;52.524;13.694;2024-02-16T08:41:42;20.02;;;11.82;;
22240;SDS011;11289;52.524;13.694;2024-02-16T08:44:12;13.82;;;10.75;;
22240;SDS011;11289;52.524;13.694;2024-02-16T08:46:38;13.98;;;10.65;;
22240;SDS011;11289;52.524;13.694;2024-02-16T08:49:05;15.18;;;9.98;;
22240;SDS011;11289;52.524;13.694;2024-02-16T08:51:32;14.65;;;9.82;;
22240;SDS011;11289;52.524;13.694;2024-02-16T08:53:58;14.52;;;10.32;;
22240;SDS011;11289;52.524;13.694;2024-02-16T08:56:27;14.48;;;9.98;;
22240;SDS011;11289;52.524;13.694;2024-02-16T08:58:53;13.68;;;9.52;;
22240;SDS011;11289;52.524;13.694;2024-02-16T09:01:29;15.00;;;8.98;;
22240;SDS011;11289;52.524;13.694;2024-02-16T09:03:59;11.60;;;7.90;;
22240;SDS011;11289;52.524;13.694;2024-02-16T09:06:26;11.80;;;8.23;;
22240;SDS011;11289;52.524;13.694;2024-02-16T09:08:52;13.35;;;8.45;;
22240;SDS011;11289;52.524;13.694;2024-02-16T09:11:18;12.10;;;8.38;;
22240;SDS011;11289;52.524;13.694;2024-02-16T09:13:44;11.63;;;8.07;;
22240;SDS011;11289;52.524;13.694;2024-02-16T09:16:10;13.00;;;8.82;;
22240;SDS011;11289;52.524;13.694;2024-02-16T09:18:36;11.93;;;8.60;;
22240;SDS011;11289;52.524;13.694;2024-02-16T09:21:03;10.77;;;8.88;;
22240;SDS011;11289;52.524;13.694;2024-02-16T09:23:31;10.52;;;8.30;;
22240;SDS011;11289;52.524;13.694;2024-02-16T09:25:57;12.40;;;8.20;;
22240;SDS011;11289;52.524;13.694;2024-02-16T09:28:25;11.25;;;7.47;;
22240;SDS011;11289;52.524;13.694;2024-02-16T09:30:51;14.88;;;9.57;;
22240;SDS011;11289;52.524;13.694;2024-02-16T09:33:17;30.90;;;21.90;;
22240;SDS011;11289;52.524;13.694;2024-02-16T09:35:43;12.60;;;9.05;;
22240;SDS011;11289;52.524;13.694;2024-02-16T09:38:09;11.95;;;7.78;;
22240;SDS011;11289;52.524;13.694;2024-02-16T09:40:36;11.48;;;8.25;;
22240;SDS011;11289;52.524;13.694;2024-02-16T09:43:02;12.07;;;7.47;;
22240;SDS011;11289;52.524;13.694;2024-02-16T09:45:28;8.82;;;6.55;;
22240;SDS011;11289;52.524;13.694;2024-02-16T09:47:57;11.60;;;7.40;;
22240;SDS011;11289;52.524;13.694;2024-02-16T09:50:24;12.48;;;7.90;;
22240;SDS011;11289;52.524;13.694;2024-02-16T09:52:52;11.63;;;7.80;;
22240;SDS011;11289;52.524;13.694;2024-02-16T09:55:20;9.43;;;7.13;;
22240;SDS011;11289;52.524;13.694;2024-02-16T09:57:46;11.85;;;7.32;;
22240;SDS011;11289;52.524;13.694;2024-02-16T10:00:12;10.30;;;7.25;;
22240;SDS011;11289;52.524;13.694;2024-02-16T10:02:39;9.00;;;7.30;;
22240;SDS011;11289;52.524;13.694;2024-02-16T10:07:39;9.57;;;6.85;;
22240;SDS011;11289;52.524;13.694;2024-02-16T10:10:05;9.73;;;6.55;;
22240;SDS011;11289;52.524;13.694;2024-02-16T10:12:31;10.70;;;8.30;;
22240;SDS011;11289;52.524;13.694;2024-02-16T10:14:57;9.10;;;6.53;;
22240;SDS011;11289;52.524;13.694;2024-02-16T10:17:25;10.20;;;6.80;;
22240;SDS011;11289;52.524;13.694;2024-02-16T10:19:58;9.93;;;6.60;;
22240;SDS011;11289;52.524;13.694;2024-02-16T10:22:25;8.75;;;6.65;;
22240;SDS011;11289;52.524;13.694;2024-02-16T10:24:51;9.50;;;6.57;;
22240;SDS011;11289;52.524;13.694;2024-02-16T10:27:17;8.95;;;7.15;;
22240;SDS011;11289;52.524;13.694;2024-02-16T10:29:43;8.88;;;7.20;;
22240;SDS011;11289;52.524;13.694;2024-02-16T10:32:15;10.85;;;7.03;;
22240;SDS011;11289;52.524;13.694;2024-02-16T10:34:41;8.85;;;6.72;;
22240;SDS011;11289;52.524;13.694;2024-02-16T10:37:07;7.00;;;5.45;;
22240;SDS011;11289;52.524;13.694;2024-02-16T10:39:34;9.13;;;6.05;;
22240;SDS011;11289;52.524;13.694;2024-02-16T10:42:01;8.50;;;6.93;;
22240;SDS011;11289;52.524;13.694;2024-02-16T10:44:28;10.20;;;6.50;;
22240;SDS011;11289;52.524;13.694;2024-02-16T10:46:54;11.13;;;6.28;;
22240;SDS011;11289;52.524;13.694;2024-02-16T10:49:22;8.07;;;6.05;;
22240;SDS011;11289;52.524;13.694;2024-02-16T10:51:51;7.97;;;6.10;;
22240;SDS011;11289;52.524;13.694;2024-02-16T10:56:52;9.85;;;6.50;;
22240;SDS011;11289;52.524;13.694;2024-02-16T10:59:19;8.77;;;6.38;;
22240;SDS011;11289;52.524;13.694;2024-02-16T11:01:45;9.15;;;6.97;;
22240;SDS011;11289;52.524;13.694;2024-02-16T11:04:15;10.30;;;6.90;;
22240;SDS011;11289;52.524;13.694;2024-02-16T11:06:45;11.63;;;7.55;;
22240;SDS011;11289;52.524;13.694;2024-02-16T11:09:29;10.73;;;7.07;;
22240;SDS011;11289;52.524;13.694;2024-02-16T11:11:59;16.17;;;8.27;;
22240;SDS011;11289;52.524;13.694;2024-02-16T11:14:36;14.95;;;7.50;;
22240;SDS011;11289;52.524;13.694;2024-02-16T11:17:10;13.95;;;8.77;;
22240;SDS011;11289;52.524;13.694;2024-02-16T11:19:41;11.48;;;6.63;;
22240;SDS011;11289;52.524;13.694;2024-02-16T11:22:08;13.02;;;7.00;;
22240;SDS011;11289;52.524;13.694;2024-02-16T11:24:37;12.63;;;7.30;;
22240;SDS011;11289;52.524;13.694;2024-02-16T11:27:08;7.82;;;6.30;;
22240;SDS011;11289;52.524;13.694;2024-02-16T11:29:35;8.90;;;6.43;;
22240;SDS011;11289;52.524;13.694;2024-02-16T11:32:02;9.32;;;6.68;;
22240;SDS011;11289;52.524;13.694;2024-02-16T11:34:29;8.00;;;5.57;;
22240;SDS011;11289;52.524;13.694;2024-02-16T11:36:56;7.22;;;5.35;;
22240;SDS011;11289;52.524;13.694;2024-02-16T11:39:23;8.13;;;6.07;;
22240;SDS011;11289;52.524;13.694;2024-02-16T11:42:07;10.32;;;7.05;;
22240;SDS011;11289;52.524;13.694;2024-02-16T11:44:34;10.05;;;6.53;;
22240;SDS011;11289;52.524;13.694;2024-02-16T11:47:01;8.20;;;5.60;;
22240;SDS011;11289;52.524;13.694;2024-02-16T11:49:28;8.52;;;5.70;;
22240;SDS011;11289;52.524;13.694;2024-02-16T11:51:55;8.85;;;6.22;;
22240;SDS011;11289;52.524;13.694;2024-02-16T11:54:21;7.57;;;5.75;;
22240;SDS011;11289;52.524;13.694;2024-02-16T11:56:48;8.48;;;5.93;;
22240;SDS011;11289;52.524;13.694;2024-02-16T11:59:18;7.25;;;5.75;;
22240;SDS011;11289;52.524;13.694;2024-02-16T12:01:51;8.27;;;6.47;;
22240;SDS011;11289;52.524;13.694;2024-02-16T12:04:19;9.60;;;6.22;;
22240;SDS011;11289;52.524;13.694;2024-02-16T12:06:59;8.32;;;5.97;;
22240;SDS011;11289;52.524;13.694;2024-02-16T12:09:27;7.88;;;5.78;;
22240;SDS011;11289;52.524;13.694;2024-02-16T12:11:54;12.30;;;8.60;;
22240;SDS011;11289;52.524;13.694;2024-02-16T12:14:21;8.75;;;6.50;;
22240;SDS011;11289;52.524;13.694;2024-02-16T12:16:52;9.55;;;6.03;;
22240;SDS011;11289;52.524;13.694;2024-02-16T12:19:21;10.57;;;6.60;;
22240;SDS011;11289;52.524;13.694;2024-02-16T12:21:49;11.10;;;7.15;;
22240;SDS011;11289;52.524;13.694;2024-02-16T12:24:16;7.47;;;6.10;;
22240;SDS011;11289;52.524;13.694;2024-02-16T12:26:42;8.65;;;6.93;;
22240;SDS011;11289;52.524;13.694;2024-02-16T12:29:08;12.95;;;8.43;;
22240;SDS011;11289;52.524;13.694;2024-02-16T12:31:41;10.43;;;7.10;;
22240;SDS011;11289;52.524;13.694;2024-02-16T12:34:08;7.97;;;6.80;;
22240;SDS011;11289;52.524;13.694;2024-02-16T12:36:34;7.38;;;5.35;;
22240;SDS011;11289;52.524;13.694;2024-02-16T12:39:01;8.13;;;6.40;;
22240;SDS011;11289;52.524;13.694;2024-02-16T12:41:32;7.65;;;5.18;;
22240;SDS011;11289;52.524;13.694;2024-02-16T12:43:59;10.82;;;8.65;;
22240;SDS011;11289;52.524;13.694;2024-02-16T12:46:25;8.45;;;6.13;;
22240;SDS011;11289;52.524;13.694;2024-02-16T12:48:51;7.30;;;5.50;;
22240;SDS011;11289;52.524;13.694;2024-02-16T12:51:19;7.13;;;5.95;;
22240;SDS011;11289;52.524;13.694;2024-02-16T12:53:45;7.88;;;5.30;;
22240;SDS011;11289;52.524;13.694;2024-02-16T12:56:11;5.30;;;4.63;;
22240;SDS011;11289;52.524;13.694;2024-02-16T12:58:38;6.18;;;4.43;;
22240;SDS011;11289;52.524;13.694;2024-02-16T13:01:04;8.18;;;5.45;;
22240;SDS011;11289;52.524;13.694;2024-02-16T13:03:34;7.53;;;5.43;;
22240;SDS011;11289;52.524;13.694;2024-02-16T13:06:01;8.40;;;5.78;;
22240;SDS011;11289;52.524;13.694;2024-02-16T13:08:31;9.27;;;6.35;;
22240;SDS011;11289;52.524;13.694;2024-02-16T13:10:57;9.98;;;6.80;;
22240;SDS011;11289;52.524;13.694;2024-02-16T13:13:23;8.85;;;6.10;;
22240;SDS011;11289;52.524;13.694;2024-02-16T13:15:50;6.75;;;4.15;;
22240;SDS011;11289;52.524;13.694;2024-02-16T13:18:16;5.18;;;3.33;;
22240;SDS011;11289;52.524;13.694;2024-02-16T13:20:43;4.97;;;3.10;;
22240;SDS011;11289;52.524;13.694;2024-02-16T13:23:09;3.83;;;2.70;;
22240;SDS011;11289;52.524;13.694;2024-02-16T13:25:35;5.30;;;3.42;;
22240;SDS011;11289;52.524;13.694;2024-02-16T13:28:02;12.40;;;3.58;;
22240;SDS011;11289;52.524;13.694;2024-02-16T13:30:28;3.78;;;2.80;;
22240;SDS011;11289;52.524;13.694;2024-02-16T13:32:54;4.85;;;2.90;;
22240;SDS011;11289;52.524;13.694;2024-02-16T13:35:20;3.72;;;2.30;;
22240;SDS011;11289;52.524;13.694;2024-02-16T13:37:47;4.88;;;3.33;;
22240;SDS011;11289;52.524;13.694;2024-02-16T13:40:13;8.85;;;3.67;;
22240;SDS011;11289;52.524;13.694;2024-02-16T13:42:40;4.93;;;2.83;;
22240;SDS011;11289;52.524;13.694;2024-02-16T13:45:08;4.55;;;3.05;;
22240;SDS011;11289;52.524;13.694;2024-02-16T13:47:37;5.00;;;3.50;;
22240;SDS011;11289;52.524;13.694;2024-02-16T13:50:08;4.93;;;3.35;;
22240;SDS011;11289;52.524;13.694;2024-02-16T13:52:34;4.25;;;2.85;;
22240;SDS011;11289;52.524;13.694;2024-02-16T13:55:01;6.20;;;3.17;;
22240;SDS011;11289;52.524;13.694;2024-02-16T13:57:27;4.10;;;2.97;;
22240;SDS011;11289;52.524;13.694;2024-02-16T13:59:53;5.45;;;3.47;;
22240;SDS011;11289;52.524;13.694;2024-02-16T14:02:19;4.55;;;2.83;;
22240;SDS011;11289;52.524;13.694;2024-02-16T14:04:45;4.97;;;2.95;;
22240;SDS011;11289;52.524;13.694;2024-02-16T14:07:11;5.03;;;3.08;;
22240;SDS011;11289;52.524;13.694;2024-02-16T14:09:37;4.03;;;3.15;;
22240;SDS011;11289;52.524;13.694;2024-02-16T14:12:04;4.20;;;3.38;;
22240;SDS011;11289;52.524;13.694;2024-02-16T14:14:30;4.68;;;3.13;;
22240;SDS011;11289;52.524;13.694;2024-02-16T14:16:56;8.50;;;3.38;;
22240;SDS011;11289;52.524;13.694;2024-02-16T14:19:22;3.60;;;2.90;;